Time;durP1;ratioP1;P1;durP2;ratioP2;P2;SDS_P1;SDS_P2;PMS_P1;PMS_P2;Temp;Humidity;BMP_temperature;BMP_pressure;BME280_temperature;BME280_humidity;BME280_pressure;Samples;Min_cycle;Max_cycle;Signal;HPM_P1;HPM_P2
2021/10/27 00:02:19;0.00;0.00;0.62;0.00;0.00;0.62;1.60;1.10;;;25.60;28.90;;;;;;2253485;61;20395;-70
2021/10/27 00:05:06;0.00;0.00;0.62;0.00;0.00;0.62;1.83;1.10;;;25.60;28.90;;;;;;2252308;61;20410;-62
2021/10/27 00:07:51;0.00;0.00;0.62;0.00;0.00;0.62;1.80;1.20;;;25.60;28.90;;;;;;2253450;61;20364;-61
2021/10/27 00:10:35;0.00;0.00;0.62;0.00;0.00;0.62;1.50;1.10;;;25.70;29.00;;;;;;2253656;61;20715;-61
2021/10/27 00:13:21;0.00;0.00;0.62;0.00;0.00;0.62;2.27;1.27;;;25.60;29.00;;;;;;2252503;61;20446;-61
2021/10/27 00:16:06;0.00;0.00;0.62;0.00;0.00;0.62;1.90;1.07;;;25.60;29.00;;;;;;2253103;61;20427;-61
2021/10/27 00:18:51;0.00;0.00;0.62;0.00;0.00;0.62;2.13;1.10;;;25.70;29.10;;;;;;2252587;61;20356;-61
2021/10/27 00:21:35;0.00;0.00;0.62;0.00;0.00;0.62;2.43;1.17;;;25.70;29.10;;;;;;2253314;61;20359;-62
2021/10/27 00:24:20;0.00;0.00;0.62;0.00;0.00;0.62;2.20;1.07;;;25.70;29.00;;;;;;2253422;61;20403;-61
2021/10/27 00:27:07;0.00;0.00;0.62;0.00;0.00;0.62;1.73;1.00;;;25.60;29.50;;;;;;2253025;61;20763;-61
2021/10/27 00:29:53;0.00;0.00;0.62;0.00;0.00;0.62;1.73;1.20;;;25.70;29.00;;;;;;2254101;61;20351;-61
2021/10/27 00:32:38;0.00;0.00;0.62;0.00;0.00;0.62;1.43;0.90;;;25.70;29.00;;;;;;2254292;61;20364;-61
2021/10/27 00:35:23;0.00;0.00;0.62;0.00;0.00;0.62;1.47;1.10;;;25.70;29.00;;;;;;2253034;61;20770;-61
2021/10/27 00:38:07;0.00;0.00;0.62;0.00;0.00;0.62;1.80;0.93;;;25.60;29.00;;;;;;2254036;61;20484;-61
2021/10/27 00:40:52;0.00;0.00;0.62;0.00;0.00;0.62;1.70;1.30;;;25.70;29.00;;;;;;2253781;61;20446;-62
2021/10/27 00:43:37;0.00;0.00;0.62;0.00;0.00;0.62;1.60;1.00;;;25.70;29.00;;;;;;2253711;61;20383;-60
2021/10/27 00:46:25;0.00;0.00;0.62;0.00;0.00;0.62;1.67;1.00;;;25.70;29.00;;;;;;2253873;61;20403;-60
2021/10/27 00:49:09;0.00;0.00;0.62;0.00;0.00;0.62;1.67;0.80;;;25.70;29.00;;;;;;2253061;61;20368;-62
2021/10/27 00:51:54;0.00;0.00;0.62;0.00;0.00;0.62;2.27;1.27;;;25.70;29.00;;;;;;2254040;61;20736;-62
2021/10/27 00:54:40;0.00;0.00;0.62;0.00;0.00;0.62;2.37;1.17;;;25.70;29.00;;;;;;2254117;61;20392;-62
2021/10/27 00:57:25;0.00;0.00;0.62;0.00;0.00;0.62;2.07;0.87;;;25.70;29.00;;;;;;2252927;61;20375;-62
2021/10/27 01:00:11;0.00;0.00;0.62;0.00;0.00;0.62;2.13;1.00;;;25.60;29.50;;;;;;2253918;61;20455;-60
2021/10/27 01:02:57;0.00;0.00;0.62;0.00;0.00;0.62;2.13;1.00;;;25.70;29.00;;;;;;2253727;61;20375;-61
2021/10/27 01:05:42;0.00;0.00;0.62;0.00;0.00;0.62;1.60;1.10;;;25.70;29.00;;;;;;2253463;61;20605;-61
2021/10/27 01:08:27;0.00;0.00;0.62;0.00;0.00;0.62;1.87;1.00;;;25.70;29.00;;;;;;2253941;61;20376;-62
2021/10/27 01:11:11;0.00;0.00;0.62;0.00;0.00;0.62;2.23;1.20;;;25.70;29.00;;;;;;2253164;61;20367;-61
2021/10/27 01:13:56;0.00;0.00;0.62;0.00;0.00;0.62;1.50;0.90;;;25.70;29.00;;;;;;2254116;61;20359;-62
2021/10/27 01:16:41;0.00;0.00;0.62;0.00;0.00;0.62;2.80;1.57;;;25.70;29.10;;;;;;2253909;61;20652;-63
2021/10/27 01:19:27;0.00;0.00;0.62;0.00;0.00;0.62;3.20;2.00;;;25.70;29.00;;;;;;2252984;61;20359;-63
2021/10/27 01:22:16;0.00;0.00;0.62;0.00;0.00;0.62;3.57;1.97;;;25.70;28.90;;;;;;2253927;61;20367;-62
2021/10/27 01:25:01;0.00;0.00;0.62;0.00;0.00;0.62;5.30;2.30;;;25.60;28.60;;;;;;2253872;61;20472;-59
2021/10/27 01:27:47;0.00;0.00;0.62;0.00;0.00;0.62;2.63;1.80;;;25.60;28.50;;;;;;2253666;61;20732;-61
2021/10/27 01:30:32;0.00;0.00;0.62;0.00;0.00;0.62;5.90;2.77;;;25.50;28.40;;;;;;2253984;61;20400;-62
2021/10/27 01:33:16;0.00;0.00;0.62;0.00;0.00;0.62;3.43;2.30;;;25.50;28.50;;;;;;2255589;61;20391;-62
2021/10/27 01:36:01;0.00;0.00;0.62;0.00;0.00;0.62;3.00;2.30;;;25.40;28.60;;;;;;2253316;61;20380;-61
2021/10/27 01:38:48;0.00;0.00;0.62;0.00;0.00;0.62;3.53;2.23;;;25.40;28.60;;;;;;2254059;61;20723;-62
2021/10/27 01:41:33;0.00;0.00;0.62;0.00;0.00;0.62;2.90;2.20;;;25.30;28.70;;;;;;2252934;61;20507;-62
2021/10/27 01:44:18;0.00;0.00;0.62;0.00;0.00;0.62;3.60;2.43;;;25.30;28.70;;;;;;2253838;61;20400;-62
2021/10/27 01:47:03;0.00;0.00;0.62;0.00;0.00;0.62;5.40;2.73;;;25.20;28.70;;;;;;2254019;61;20391;-60
2021/10/27 01:49:48;0.00;0.00;0.62;0.00;0.00;0.62;6.50;2.53;;;25.20;28.80;;;;;;2253373;61;20760;-62
2021/10/27 01:52:33;0.00;0.00;0.62;0.00;0.00;0.62;3.60;2.50;;;25.20;28.80;;;;;;2253940;61;20399;-63
2021/10/27 01:55:19;0.00;0.00;0.62;0.00;0.00;0.62;3.53;3.03;;;25.10;28.80;;;;;;2253048;61;20604;-60
2021/10/27 01:58:05;0.00;0.00;0.62;0.00;0.00;0.62;3.37;2.73;;;25.10;28.90;;;;;;2253945;61;20359;-60
2021/10/27 02:00:50;0.00;0.00;0.62;0.00;0.00;0.62;4.67;3.37;;;25.10;28.90;;;;;;2253927;61;20434;-62
2021/10/27 02:03:34;0.00;0.00;0.62;0.00;0.00;0.62;4.13;3.13;;;25.00;28.90;;;;;;2252635;61;20391;-62
2021/10/27 02:06:19;0.00;0.00;0.62;0.00;0.00;0.62;6.30;3.50;;;25.00;29.00;;;;;;2253335;61;20432;-60
2021/10/27 02:09:03;0.00;0.00;0.62;0.00;0.00;0.62;7.43;4.40;;;25.00;29.10;;;;;;2254071;61;20408;-62
2021/10/27 02:11:49;0.00;0.00;0.62;0.00;0.00;0.62;5.30;3.63;;;25.00;29.10;;;;;;2252545;61;20360;-62
2021/10/27 02:14:35;0.00;0.00;0.62;0.00;0.00;0.62;6.50;3.70;;;24.90;29.10;;;;;;2253740;61;20359;-62
2021/10/27 02:17:19;0.00;0.00;0.62;0.00;0.00;0.62;5.93;4.23;;;24.90;29.10;;;;;;2253200;61;20388;-62
2021/10/27 02:20:06;0.00;0.00;0.62;0.00;0.00;0.62;3.87;3.43;;;24.90;29.20;;;;;;2253781;61;20383;-62
2021/10/27 02:22:51;0.00;0.00;0.62;0.00;0.00;0.62;3.43;2.90;;;24.80;29.20;;;;;;2253841;61;20784;-62
2021/10/27 02:25:35;0.00;0.00;0.62;0.00;0.00;0.62;7.00;4.07;;;24.80;29.30;;;;;;2252513;61;20355;-62
2021/10/27 02:28:21;0.00;0.00;0.62;0.00;0.00;0.62;8.30;3.90;;;24.80;29.30;;;;;;2253408;61;20511;-62
2021/10/27 02:31:06;0.00;0.00;0.62;0.00;0.00;0.62;3.90;3.50;;;24.70;29.30;;;;;;2253925;61;20431;-62
2021/10/27 02:33:51;0.00;0.00;0.62;0.00;0.00;0.62;5.90;3.93;;;24.70;29.30;;;;;;2252830;61;20363;-62
2021/10/27 02:36:35;0.00;0.00;0.62;0.00;0.00;0.62;6.00;4.23;;;24.70;29.30;;;;;;2253044;61;20747;-62
2021/10/27 02:39:20;0.00;0.00;0.62;0.00;0.00;0.62;4.10;3.53;;;24.70;29.40;;;;;;2253229;61;20732;-62
2021/10/27 02:42:06;0.00;0.00;0.62;0.00;0.00;0.62;4.23;3.80;;;24.70;29.40;;;;;;2253645;61;20364;-62
2021/10/27 02:44:53;0.00;0.00;0.62;0.00;0.00;0.62;4.00;3.60;;;24.70;29.40;;;;;;2253679;61;20403;-62
2021/10/27 02:47:42;0.00;0.00;0.62;0.00;0.00;0.62;5.73;4.60;;;24.60;29.40;;;;;;2252517;61;20438;-63
2021/10/27 02:50:26;0.00;0.00;0.62;0.00;0.00;0.62;6.23;4.00;;;24.60;29.50;;;;;;2253728;61;20370;-62
2021/10/27 02:53:11;0.00;0.00;0.62;0.00;0.00;0.62;4.07;3.50;;;24.60;29.50;;;;;;2253816;61;20387;-62
2021/10/27 02:55:56;0.00;0.00;0.62;0.00;0.00;0.62;4.10;3.70;;;24.60;29.60;;;;;;2252597;61;20446;-62
2021/10/27 02:58:42;0.00;0.00;0.62;0.00;0.00;0.62;5.83;3.90;;;24.60;29.50;;;;;;2253625;61;20399;-62
2021/10/27 03:01:28;0.00;0.00;0.62;0.00;0.00;0.62;4.70;3.70;;;24.50;29.60;;;;;;2253257;61;20622;-62
2021/10/27 03:04:12;0.00;0.00;0.62;0.00;0.00;0.62;4.33;3.67;;;24.60;29.70;;;;;;2253356;61;20443;-62
2021/10/27 03:06:57;0.00;0.00;0.62;0.00;0.00;0.62;5.70;4.10;;;24.50;29.60;;;;;;2253495;61;20387;-62
2021/10/27 03:09:41;0.00;0.00;0.62;0.00;0.00;0.62;8.50;4.47;;;24.50;29.70;;;;;;2252287;61;20391;-62
2021/10/27 03:12:26;0.00;0.00;0.62;0.00;0.00;0.62;4.43;3.90;;;24.50;29.70;;;;;;2253670;61;20586;-62
2021/10/27 03:15:11;0.00;0.00;0.62;0.00;0.00;0.62;5.50;4.40;;;24.50;29.70;;;;;;2253486;61;20391;-61
2021/10/27 03:17:57;0.00;0.00;0.62;0.00;0.00;0.62;4.27;3.80;;;24.50;29.70;;;;;;2252184;61;20359;-62
2021/10/27 03:20:42;0.00;0.00;0.62;0.00;0.00;0.62;5.07;4.13;;;24.50;29.70;;;;;;2253545;61;20450;-62
2021/10/27 03:23:27;0.00;0.00;0.62;0.00;0.00;0.62;5.07;3.70;;;24.50;29.70;;;;;;2253479;61;20479;-62
2021/10/27 03:26:12;0.00;0.00;0.62;0.00;0.00;0.62;4.93;4.40;;;24.40;29.70;;;;;;2253004;61;20602;-62
2021/10/27 03:28:56;0.00;0.00;0.62;0.00;0.00;0.62;5.70;4.30;;;24.40;29.70;;;;;;2255878;61;20367;-62
2021/10/27 03:31:41;0.00;0.00;0.62;0.00;0.00;0.62;4.50;4.07;;;24.40;29.70;;;;;;2252939;61;20356;-62
2021/10/27 03:34:27;0.00;0.00;0.62;0.00;0.00;0.62;4.67;4.00;;;24.40;29.70;;;;;;2253667;61;20364;-62
2021/10/27 03:37:14;0.00;0.00;0.62;0.00;0.00;0.62;6.70;4.40;;;24.40;29.70;;;;;;2253401;61;20396;-61
2021/10/27 03:39:58;0.00;0.00;0.62;0.00;0.00;0.62;6.20;4.97;;;24.40;29.70;;;;;;2252678;61;20663;-61
2021/10/27 03:42:44;0.00;0.00;0.62;0.00;0.00;0.62;5.17;4.67;;;24.40;29.70;;;;;;2253545;61;20352;-61
2021/10/27 03:45:28;0.00;0.00;0.62;0.00;0.00;0.62;6.40;5.17;;;24.30;29.60;;;;;;2253634;61;20442;-62
2021/10/27 03:48:13;0.00;0.00;0.62;0.00;0.00;0.62;8.93;5.50;;;24.30;29.80;;;;;;2253082;61;20851;-61
2021/10/27 03:50:59;0.00;0.00;0.62;0.00;0.00;0.62;5.93;4.90;;;24.30;29.80;;;;;;2253505;61;20359;-62
2021/10/27 03:53:44;0.00;0.00;0.62;0.00;0.00;0.62;7.53;4.93;;;24.30;30.00;;;;;;2252930;61;20355;-62
2021/10/27 03:56:29;0.00;0.00;0.62;0.00;0.00;0.62;5.50;4.70;;;24.20;30.00;;;;;;2253422;61;20388;-62
2021/10/27 03:59:15;0.00;0.00;0.62;0.00;0.00;0.62;6.87;4.50;;;24.20;30.00;;;;;;2253492;61;20360;-62
2021/10/27 04:02:00;0.00;0.00;0.62;0.00;0.00;0.62;6.03;4.43;;;24.20;30.00;;;;;;2253324;61;20711;-62
2021/10/27 04:04:44;0.00;0.00;0.62;0.00;0.00;0.62;5.40;4.63;;;24.20;30.00;;;;;;2254150;61;20553;-62
2021/10/27 04:07:31;0.00;0.00;0.62;0.00;0.00;0.62;4.67;4.10;;;24.20;30.10;;;;;;2254364;61;20649;-62
2021/10/27 04:10:16;0.00;0.00;0.62;0.00;0.00;0.62;6.13;4.70;;;24.10;30.20;;;;;;2253619;61;20360;-62
2021/10/27 04:13:00;0.00;0.00;0.62;0.00;0.00;0.62;4.50;4.03;;;24.10;30.20;;;;;;2254164;61;20628;-62
2021/10/27 04:15:45;0.00;0.00;0.62;0.00;0.00;0.62;4.33;3.90;;;24.10;30.10;;;;;;2253641;61;20455;-62
2021/10/27 04:18:30;0.00;0.00;0.62;0.00;0.00;0.62;6.50;4.70;;;24.10;30.30;;;;;;2254059;61;20590;-62
2021/10/27 04:21:14;0.00;0.00;0.62;0.00;0.00;0.62;4.47;3.87;;;24.10;30.40;;;;;;2254120;61;20459;-62
2021/10/27 04:24:00;0.00;0.00;0.62;0.00;0.00;0.62;5.23;4.73;;;24.10;30.30;;;;;;2253226;61;20651;-62
2021/10/27 04:26:45;0.00;0.00;0.62;0.00;0.00;0.62;5.63;4.53;;;24.10;30.40;;;;;;2253850;61;20391;-62
2021/10/27 04:29:29;0.00;0.00;0.62;0.00;0.00;0.62;5.73;3.37;;;24.00;30.40;;;;;;2254284;61;20368;-62
2021/10/27 04:32:14;0.00;0.00;0.62;0.00;0.00;0.62;5.43;3.80;;;24.00;30.40;;;;;;2253263;61;20391;-63
2021/10/27 04:34:59;0.00;0.00;0.62;0.00;0.00;0.62;5.30;4.03;;;24.00;30.40;;;;;;2253896;61;20580;-63
2021/10/27 04:37:44;0.00;0.00;0.62;0.00;0.00;0.62;4.43;3.53;;;24.00;30.40;;;;;;2253623;61;20347;-62
2021/10/27 04:40:31;0.00;0.00;0.62;0.00;0.00;0.62;6.03;4.00;;;24.00;30.50;;;;;;2253844;61;20795;-62
2021/10/27 04:43:16;0.00;0.00;0.62;0.00;0.00;0.62;4.60;4.07;;;24.00;30.50;;;;;;2254130;61;20367;-62
2021/10/27 04:46:00;0.00;0.00;0.62;0.00;0.00;0.62;4.73;3.67;;;24.00;30.60;;;;;;2252992;61;20832;-62
2021/10/27 04:48:45;0.00;0.00;0.62;0.00;0.00;0.62;5.17;4.10;;;24.00;30.70;;;;;;2254054;61;20375;-62
2021/10/27 04:51:29;0.00;0.00;0.62;0.00;0.00;0.62;5.27;4.33;;;23.90;30.60;;;;;;2254317;61;20348;-62
2021/10/27 04:54:14;0.00;0.00;0.62;0.00;0.00;0.62;6.47;4.37;;;23.90;30.70;;;;;;2253219;61;20355;-62
2021/10/27 04:57:00;0.00;0.00;0.62;0.00;0.00;0.62;5.60;3.77;;;23.90;30.70;;;;;;2253898;61;20462;-62
2021/10/27 04:59:45;0.00;0.00;0.62;0.00;0.00;0.62;4.53;3.67;;;23.90;30.80;;;;;;2253724;61;20527;-62
2021/10/27 05:02:29;0.00;0.00;0.62;0.00;0.00;0.62;3.73;3.33;;;23.90;30.80;;;;;;2253621;61;20367;-61
2021/10/27 05:05:14;0.00;0.00;0.62;0.00;0.00;0.62;4.77;4.37;;;23.90;30.80;;;;;;2254000;61;20580;-62
2021/10/27 05:08:00;0.00;0.00;0.62;0.00;0.00;0.62;5.17;4.17;;;23.90;30.90;;;;;;2253259;61;20407;-60
2021/10/27 05:10:45;0.00;0.00;0.62;0.00;0.00;0.62;5.40;3.90;;;23.90;31.00;;;;;;2253989;61;20391;-61
2021/10/27 05:13:32;0.00;0.00;0.62;0.00;0.00;0.62;5.00;4.50;;;23.90;31.10;;;;;;2254213;61;20380;-62
2021/10/27 05:16:16;0.00;0.00;0.62;0.00;0.00;0.62;6.73;4.13;;;23.80;31.00;;;;;;2252747;61;20379;-62
2021/10/27 05:19:00;0.00;0.00;0.62;0.00;0.00;0.62;6.07;4.30;;;23.80;31.00;;;;;;2253957;61;20731;-62
2021/10/27 05:21:45;0.00;0.00;0.62;0.00;0.00;0.62;5.30;4.30;;;23.80;31.10;;;;;;2254115;61;20379;-61
2021/10/27 05:24:30;0.00;0.00;0.62;0.00;0.00;0.62;4.90;3.87;;;23.80;31.20;;;;;;2253481;61;20371;-60
2021/10/27 05:27:15;0.00;0.00;0.62;0.00;0.00;0.62;4.23;3.83;;;23.80;31.20;;;;;;2253941;61;20811;-62
2021/10/27 05:30:03;0.00;0.00;0.62;0.00;0.00;0.62;4.47;3.73;;;23.80;31.20;;;;;;2253235;61;20364;-62
2021/10/27 05:32:47;0.00;0.00;0.62;0.00;0.00;0.62;4.67;3.70;;;23.80;31.20;;;;;;2254106;61;20360;-62
2021/10/27 05:35:32;0.00;0.00;0.62;0.00;0.00;0.62;6.43;4.37;;;23.80;31.20;;;;;;2253901;61;20367;-60
2021/10/27 05:38:16;0.00;0.00;0.62;0.00;0.00;0.62;4.37;3.97;;;23.80;31.20;;;;;;2252677;61;20410;-60
2021/10/27 05:41:01;0.00;0.00;0.62;0.00;0.00;0.62;3.80;3.47;;;23.80;31.20;;;;;;2253922;61;20454;-62
2021/10/27 05:43:45;0.00;0.00;0.62;0.00;0.00;0.62;4.10;3.67;;;23.80;31.30;;;;;;2254094;61;20384;-62
2021/10/27 05:46:31;0.00;0.00;0.62;0.00;0.00;0.62;4.30;3.67;;;23.80;31.30;;;;;;2253187;61;20499;-62
2021/10/27 05:49:38;0.00;0.00;0.62;0.00;0.00;0.62;4.50;4.10;;;23.80;31.30;;;;;;2253938;61;20360;-60
2021/10/27 05:55:22;0.00;0.00;0.62;0.00;0.00;0.62;4.03;3.63;;;23.80;31.40;;;;;;2253918;61;20359;-62
2021/10/27 05:58:12;0.00;0.00;0.62;0.00;0.00;0.62;4.20;3.80;;;23.80;31.50;;;;;;2253890;61;20789;-61
2021/10/27 06:00:56;0.00;0.00;0.62;0.00;0.00;0.62;4.07;3.23;;;23.80;31.60;;;;;;2252884;61;20387;-61
2021/10/27 06:03:42;0.00;0.00;0.62;0.00;0.00;0.62;4.43;3.60;;;23.80;31.60;;;;;;2253871;61;20379;-63
2021/10/27 06:06:27;0.00;0.00;0.62;0.00;0.00;0.62;6.60;3.90;;;23.70;31.50;;;;;;2253307;61;20606;-62
2021/10/27 06:09:12;0.00;0.00;0.62;0.00;0.00;0.62;4.27;3.87;;;23.70;31.60;;;;;;2253550;61;20367;-62
2021/10/27 06:12:01;0.00;0.00;0.62;0.00;0.00;0.62;4.00;3.60;;;23.70;31.70;;;;;;2253391;61;20403;-62
2021/10/27 06:14:45;0.00;0.00;0.62;0.00;0.00;0.62;3.80;3.30;;;23.70;31.70;;;;;;2252740;61;20396;-62
2021/10/27 06:17:30;0.00;0.00;0.62;0.00;0.00;0.62;4.50;3.50;;;23.70;31.70;;;;;;2253739;61;20383;-62
2021/10/27 06:20:16;0.00;0.00;0.62;0.00;0.00;0.62;4.07;3.00;;;23.70;31.70;;;;;;2253880;61;20423;-62
2021/10/27 06:23:01;0.00;0.00;0.62;0.00;0.00;0.62;3.17;2.87;;;23.70;31.70;;;;;;2252734;61;20371;-60
2021/10/27 06:25:46;0.00;0.00;0.62;0.00;0.00;0.62;3.30;3.03;;;23.70;31.70;;;;;;2253643;61;20620;-62
2021/10/27 06:28:36;0.00;0.00;0.62;0.00;0.00;0.62;3.70;3.13;;;23.70;31.70;;;;;;2253440;61;20359;-62
2021/10/27 06:31:29;0.00;0.00;0.62;0.00;0.00;0.62;3.83;3.37;;;23.70;31.90;;;;;;2253470;61;20727;-60
2021/10/27 06:37:14;0.00;0.00;0.62;0.00;0.00;0.62;4.60;3.70;;;23.70;32.10;;;;;;2252625;61;20387;-60
2021/10/27 06:49:07;0.00;0.00;0.62;0.00;0.00;0.62;3.73;2.63;;;23.60;32.10;;;;;;2253487;61;20755;-63
2021/10/27 06:51:51;0.00;0.00;0.62;0.00;0.00;0.62;3.80;2.77;;;23.70;32.30;;;;;;2252904;61;20619;-60
2021/10/27 06:54:37;0.00;0.00;0.62;0.00;0.00;0.62;3.13;2.83;;;23.70;32.30;;;;;;2253737;61;20360;-64
2021/10/27 06:57:26;0.00;0.00;0.62;0.00;0.00;0.62;5.80;3.33;;;23.60;32.30;;;;;;2253607;61;20442;-62
2021/10/27 07:00:18;0.00;0.00;0.62;0.00;0.00;0.62;3.03;2.73;;;23.70;32.40;;;;;;2252956;61;20379;-64
2021/10/27 07:03:17;0.00;0.00;0.62;0.00;0.00;0.62;3.23;2.70;;;23.70;32.50;;;;;;2255934;61;20391;-62
2021/10/27 07:15:26;0.00;0.00;0.62;0.00;0.00;0.62;2.87;2.67;;;23.60;32.60;;;;;;2252809;61;20367;-63
2021/10/27 07:18:11;0.00;0.00;0.62;0.00;0.00;0.62;2.67;2.47;;;23.70;32.60;;;;;;2253101;61;20356;-63
2021/10/27 07:20:55;0.00;0.00;0.62;0.00;0.00;0.62;3.70;2.70;;;23.70;32.70;;;;;;2253831;61;20449;-63
2021/10/27 07:23:40;0.00;0.00;0.62;0.00;0.00;0.62;3.70;2.53;;;23.70;32.80;;;;;;2253873;61;20363;-63
2021/10/27 07:26:26;0.00;0.00;0.62;0.00;0.00;0.62;2.53;2.30;;;23.70;32.80;;;;;;2256126;61;20387;-60
2021/10/27 07:29:18;0.00;0.00;0.62;0.00;0.00;0.62;3.90;3.00;;;23.70;32.80;;;;;;2250101;61;20413;-61
2021/10/27 07:32:05;0.00;0.00;0.62;0.00;0.00;0.62;2.97;2.27;;;23.70;32.90;;;;;;2251259;61;20356;-61
2021/10/27 07:34:59;0.00;0.00;0.62;0.00;0.00;0.62;3.07;2.30;;;23.70;33.60;;;;;;2253577;61;20399;-61
2021/10/27 07:40:54;0.00;0.00;0.62;0.00;0.00;0.62;3.47;2.40;;;23.70;33.00;;;;;;2253569;61;20376;-62
2021/10/27 07:43:42;0.00;0.00;0.62;0.00;0.00;0.62;3.37;3.07;;;23.70;32.90;;;;;;2253473;61;20376;-59
2021/10/27 07:46:29;0.00;0.00;0.62;0.00;0.00;0.62;3.57;2.80;;;23.70;33.00;;;;;;2253481;61;20415;-64
2021/10/27 07:49:17;0.00;0.00;0.62;0.00;0.00;0.62;2.70;2.20;;;23.70;33.00;;;;;;2253657;61;20407;-59
2021/10/27 07:52:02;0.00;0.00;0.62;0.00;0.00;0.62;3.07;2.77;;;23.70;33.00;;;;;;2253629;61;20627;-62
2021/10/27 07:54:47;0.00;0.00;0.62;0.00;0.00;0.62;3.20;2.90;;;23.70;33.00;;;;;;2253267;61;20379;-60
2021/10/27 07:57:32;0.00;0.00;0.62;0.00;0.00;0.62;3.10;2.80;;;23.70;33.00;;;;;;2253629;61;20816;-59
2021/10/27 08:00:17;0.00;0.00;0.62;0.00;0.00;0.62;3.50;2.93;;;23.70;33.00;;;;;;2253520;61;20399;-62
2021/10/27 08:03:03;0.00;0.00;0.62;0.00;0.00;0.62;3.30;3.00;;;23.70;33.00;;;;;;2251457;61;20751;-62
2021/10/27 08:05:49;0.00;0.00;0.62;0.00;0.00;0.62;3.40;3.10;;;23.70;33.10;;;;;;2252415;61;20388;-60
2021/10/27 08:08:34;0.00;0.00;0.62;0.00;0.00;0.62;4.30;3.50;;;23.70;33.00;;;;;;2253725;61;20360;-62
2021/10/27 08:11:19;0.00;0.00;0.62;0.00;0.00;0.62;4.10;3.37;;;23.80;33.10;;;;;;2253446;61;20571;-63
2021/10/27 08:14:04;0.00;0.00;0.62;0.00;0.00;0.62;3.00;2.70;;;23.80;33.10;;;;;;2253130;61;20415;-59
2021/10/27 08:16:48;0.00;0.00;0.62;0.00;0.00;0.62;3.37;2.70;;;23.70;33.00;;;;;;2253448;61;20391;-62
2021/10/27 08:19:34;0.00;0.00;0.62;0.00;0.00;0.62;4.20;3.73;;;23.80;33.10;;;;;;2253629;61;20376;-61
2021/10/27 08:22:20;0.00;0.00;0.62;0.00;0.00;0.62;4.00;3.03;;;23.70;33.10;;;;;;2253304;61;20364;-61
2021/10/27 08:25:09;0.00;0.00;0.62;0.00;0.00;0.62;3.83;2.63;;;23.70;33.10;;;;;;2253408;61;20372;-59
2021/10/27 08:27:56;0.00;0.00;0.62;0.00;0.00;0.62;3.67;2.90;;;23.70;33.00;;;;;;2253027;61;20451;-59
2021/10/27 08:30:49;0.00;0.00;0.62;0.00;0.00;0.62;4.37;2.63;;;23.80;33.10;;;;;;2255267;61;20616;-59
2021/10/27 08:33:44;0.00;0.00;0.62;0.00;0.00;0.62;3.30;3.00;;;23.80;33.10;;;;;;2253001;61;20359;-59
2021/10/27 08:36:30;0.00;0.00;0.62;0.00;0.00;0.62;2.80;2.47;;;23.70;33.10;;;;;;2248729;61;20629;-61
2021/10/27 08:39:16;0.00;0.00;0.62;0.00;0.00;0.62;2.80;2.40;;;23.80;33.20;;;;;;2253148;61;20919;-61
2021/10/27 08:42:02;0.00;0.00;0.62;0.00;0.00;0.62;3.07;2.40;;;23.80;33.10;;;;;;2253562;61;20484;-58
2021/10/27 08:44:47;0.00;0.00;0.62;0.00;0.00;0.62;3.87;2.40;;;23.80;33.10;;;;;;2248116;61;20458;-58
2021/10/27 08:47:34;0.00;0.00;0.62;0.00;0.00;0.62;4.30;2.67;;;23.80;33.00;;;;;;2252793;61;20411;-62
2021/10/27 08:50:20;0.00;0.00;0.62;0.00;0.00;0.62;2.43;2.23;;;23.80;33.00;;;;;;2333467;53;20768;-59
2021/10/27 08:53:06;0.00;0.00;0.62;0.00;0.00;0.62;2.93;2.27;;;23.90;33.00;;;;;;2252314;61;20375;-59
2021/10/27 08:55:52;0.00;0.00;0.62;0.00;0.00;0.62;2.70;1.83;;;23.90;33.00;;;;;;2253904;61;20399;-62
2021/10/27 08:58:47;0.00;0.00;0.62;0.00;0.00;0.62;3.20;1.97;;;23.90;33.00;;;;;;2253714;61;20367;-62
2021/10/27 09:02:20;0.00;0.00;0.62;0.00;0.00;0.62;2.70;1.73;;;24.00;33.00;;;;;;2257946;61;20665;-62
2021/10/27 09:08:00;0.00;0.00;0.62;0.00;0.00;0.62;3.80;2.67;;;24.10;32.90;;;;;;2257834;61;20375;-63
2021/10/27 09:16:37;0.00;0.00;0.62;0.00;0.00;0.62;2.40;1.90;;;24.10;32.70;;;;;;2257883;61;20410;-64
2021/10/27 09:36:11;0.00;0.00;0.62;0.00;0.00;0.62;1.73;1.47;;;24.30;32.60;;;;;;2257722;61;20570;-64
2021/10/27 09:56:54;0.00;0.00;0.62;0.00;0.00;0.62;2.47;1.67;;;24.50;32.30;;;;;;2257631;61;20443;-63
2021/10/27 10:05:48;0.00;0.00;0.62;0.00;0.00;0.62;2.90;1.87;;;24.60;32.20;;;;;;2257274;61;20399;-64
2021/10/27 10:08:33;0.00;0.00;0.62;0.00;0.00;0.62;2.40;2.00;;;24.60;32.10;;;;;;2257895;61;20386;-64
2021/10/27 10:11:19;0.00;0.00;0.62;0.00;0.00;0.62;2.00;1.50;;;24.60;32.10;;;;;;2257725;61;20439;-64
2021/10/27 10:14:09;0.00;0.00;0.62;0.00;0.00;0.62;1.80;1.47;;;24.60;32.10;;;;;;2257694;61;20390;-64
2021/10/27 10:16:58;0.00;0.00;0.62;0.00;0.00;0.62;2.23;1.80;;;24.60;32.00;;;;;;2257983;61;20515;-64
2021/10/27 10:19:44;0.00;0.00;0.62;0.00;0.00;0.62;2.77;1.73;;;24.60;32.00;;;;;;2257689;61;20640;-64
2021/10/27 10:22:32;0.00;0.00;0.62;0.00;0.00;0.62;1.90;1.40;;;24.60;31.90;;;;;;2257668;61;20722;-65
2021/10/27 10:25:32;0.00;0.00;0.62;0.00;0.00;0.62;2.53;1.50;;;24.70;32.00;;;;;;2258077;61;20786;-63
2021/10/27 10:28:20;0.00;0.00;0.62;0.00;0.00;0.62;2.07;1.40;;;24.70;32.00;;;;;;2257302;61;20413;-63
2021/10/27 10:31:08;0.00;0.00;0.62;0.00;0.00;0.62;1.90;1.70;;;24.70;31.90;;;;;;2257881;61;20350;-64
2021/10/27 10:33:52;0.00;0.00;0.62;0.00;0.00;0.62;2.33;1.50;;;24.70;31.90;;;;;;2257720;61;20739;-63
2021/10/27 10:36:42;0.00;0.00;0.62;0.00;0.00;0.62;1.83;1.50;;;24.70;31.80;;;;;;2256897;61;20462;-65
2021/10/27 10:39:52;0.00;0.00;0.62;0.00;0.00;0.62;2.00;1.43;;;24.70;31.80;;;;;;2258071;61;20431;-62
2021/10/27 10:43:02;0.00;0.00;0.62;0.00;0.00;0.62;1.80;1.30;;;24.70;31.80;;;;;;2257203;61;20414;-64
2021/10/27 10:56:53;0.00;0.00;0.62;0.00;0.00;0.62;2.33;1.60;;;24.70;31.70;;;;;;2257902;61;20355;-63
2021/10/27 10:59:52;0.00;0.00;0.62;0.00;0.00;0.62;1.80;1.50;;;24.70;31.60;;;;;;2256952;61;20375;-64
2021/10/27 11:37:21;0.00;0.00;0.62;0.00;0.00;0.62;1.60;1.10;;;24.80;31.50;;;;;;2257422;61;20819;-62
2021/10/27 11:39:31;0.00;0.00;0.62;0.00;0.00;0.62;1.40;1.00;;;24.90;31.50;;;;;;2257649;61;20626;-64
2021/10/27 11:45:26;0.00;0.00;0.62;0.00;0.00;0.62;1.97;1.17;;;24.90;31.40;;;;;;2257548;61;20370;-64
2021/10/27 11:48:27;0.00;0.00;0.62;0.00;0.00;0.62;1.43;1.00;;;24.90;31.40;;;;;;2257493;61;20367;-64
2021/10/27 11:51:15;0.00;0.00;0.62;0.00;0.00;0.62;1.73;0.87;;;24.90;31.40;;;;;;2257406;61;20599;-65
2021/10/27 11:54:09;0.00;0.00;0.62;0.00;0.00;0.62;1.73;1.37;;;24.90;31.40;;;;;;2257697;61;20576;-64
2021/10/27 11:56:55;0.00;0.00;0.62;0.00;0.00;0.62;1.50;1.00;;;24.90;31.40;;;;;;2257084;61;20383;-64
2021/10/27 11:59:44;0.00;0.00;0.62;0.00;0.00;0.62;1.30;0.90;;;24.90;31.30;;;;;;2257570;61;20355;-65
2021/10/27 12:02:47;0.00;0.00;0.62;0.00;0.00;0.62;1.60;1.00;;;24.90;31.30;;;;;;2257527;61;20382;-65
2021/10/27 12:05:40;0.00;0.00;0.62;0.00;0.00;0.62;1.63;1.00;;;24.90;31.30;;;;;;2257239;61;20418;-62
2021/10/27 12:08:59;0.00;0.00;0.62;0.00;0.00;0.62;1.50;1.00;;;24.90;32.00;;;;;;2257737;61;20734;-64
2021/10/27 12:15:20;0.00;0.00;0.62;0.00;0.00;0.62;4.70;1.00;;;24.90;31.20;;;;;;2257308;61;20444;-62
2021/10/27 12:18:07;0.00;0.00;0.62;0.00;0.00;0.62;2.13;1.30;;;25.00;31.30;;;;;;2257267;61;20363;-64
2021/10/27 12:20:56;0.00;0.00;0.62;0.00;0.00;0.62;1.60;0.97;;;25.00;31.30;;;;;;2257519;61;20374;-63
2021/10/27 12:23:50;0.00;0.00;0.62;0.00;0.00;0.62;2.47;1.30;;;25.00;31.30;;;;;;2258523;61;20429;-63
2021/10/27 12:26:43;0.00;0.00;0.62;0.00;0.00;0.62;1.70;1.13;;;25.00;31.30;;;;;;2252500;61;20528;-62
2021/10/27 12:29:31;0.00;0.00;0.62;0.00;0.00;0.62;1.80;1.27;;;25.00;31.40;;;;;;2258169;61;20358;-63
2021/10/27 12:32:16;0.00;0.00;0.62;0.00;0.00;0.62;2.13;1.20;;;25.00;31.50;;;;;;2258189;61;20398;-64
2021/10/27 12:35:07;0.00;0.00;0.62;0.00;0.00;0.62;1.50;1.00;;;25.10;31.60;;;;;;2257746;61;20358;-64
2021/10/27 12:38:05;0.00;0.00;0.62;0.00;0.00;0.62;1.70;1.10;;;25.10;31.70;;;;;;2258343;61;20471;-62
2021/10/27 12:40:55;0.00;0.00;0.62;0.00;0.00;0.62;2.07;1.10;;;25.10;31.60;;;;;;2257716;61;20454;-64
2021/10/27 12:43:42;0.00;0.00;0.62;0.00;0.00;0.62;1.80;1.00;;;25.10;31.60;;;;;;2258189;61;20367;-63
2021/10/27 12:46:27;0.00;0.00;0.62;0.00;0.00;0.62;1.80;1.20;;;25.20;31.60;;;;;;2258391;61;20371;-64
2021/10/27 12:49:19;0.00;0.00;0.62;0.00;0.00;0.62;1.60;1.30;;;25.20;31.60;;;;;;2258038;61;20722;-64
2021/10/27 12:52:26;0.00;0.00;0.62;0.00;0.00;0.62;1.90;1.00;;;25.20;31.60;;;;;;2255453;61;20375;-64
2021/10/27 12:55:26;0.00;0.00;0.62;0.00;0.00;0.62;1.80;1.27;;;25.20;31.50;;;;;;2253808;61;20390;-64
2021/10/27 12:58:16;0.00;0.00;0.62;0.00;0.00;0.62;2.73;1.07;;;25.30;31.50;;;;;;2254066;61;20396;-64
2021/10/27 13:01:14;0.00;0.00;0.62;0.00;0.00;0.62;2.00;1.63;;;25.30;31.60;;;;;;2254121;61;20387;-64
2021/10/27 13:04:13;0.00;0.00;0.62;0.00;0.00;0.62;3.30;2.23;;;25.40;31.70;;;;;;2252029;61;20379;-64
2021/10/27 13:07:03;0.00;0.00;0.62;0.00;0.00;0.62;3.10;2.73;;;25.40;31.60;;;;;;2253741;61;20435;-64
2021/10/27 13:12:57;0.00;0.00;0.62;0.00;0.00;0.62;6.10;4.47;;;25.40;31.70;;;;;;2305694;53;20367;-64